Wye Mills, Maryland
Current Conditions -  °F | °C
As of 5:50 PM on Tuesday 27 Jan 2015 (Local Time) from KESN Reporting Station
Clear Clear  
Wind Chill: 27°   Ceiling: Unl
Heat Index: 36°   Visibility: 10mi
Dew Point: 23°   Wind: 13mph
Humidity: 60%   Direction: 330°NNW
Pressure: 29.83"   Gusts: NA
Location:  38.94°N, 76.08°W
Report Text: KESN 272250Z 33011KT 10SM SKC 02/M05 A2983
Loading
Personal Weather Stations






























Interactive Weather Map New forecast layout! Learn more

10-Day Weather Forecast

Advertisements
Track Severe Weather on mobile